createdAt,value
2019-03-30T00:01:21.668Z,44.85
2019-03-30T00:03:30.510Z,46.85
2019-03-30T00:05:38.281Z,55.00
2019-03-30T00:07:45.954Z,54.93
2019-03-30T00:09:53.734Z,55.50
2019-03-30T00:12:01.460Z,63.68
2019-03-30T00:14:09.233Z,81.50
2019-03-30T00:16:16.918Z,85.32
2019-03-30T00:18:24.626Z,83.10
2019-03-30T00:20:32.608Z,86.05
2019-03-30T00:22:40.617Z,83.90
2019-03-30T00:24:48.397Z,80.12
2019-03-30T00:26:56.190Z,84.50
2019-03-30T00:29:03.933Z,85.25
2019-03-30T00:31:11.643Z,85.10
2019-03-30T00:33:19.460Z,78.78
2019-03-30T00:35:27.283Z,81.32
2019-03-30T00:37:35.061Z,79.97
2019-03-30T00:39:42.739Z,79.55
2019-03-30T00:41:50.586Z,78.20
2019-03-30T00:43:58.316Z,80.55
2019-03-30T00:46:06.001Z,87.17
2019-03-30T00:48:13.753Z,79.70
2019-03-30T00:50:22.769Z,82.27
2019-03-30T00:52:30.581Z,82.02
2019-03-30T00:54:38.359Z,71.05
2019-03-30T00:56:46.082Z,66.45
2019-03-30T00:58:53.926Z,76.22
2019-03-30T01:01:02.874Z,81.72
2019-03-30T01:03:10.592Z,77.95
2019-03-30T01:05:18.441Z,89.25
2019-03-30T01:07:26.085Z,95.77
2019-03-30T01:09:33.994Z,71.45
2019-03-30T01:11:41.817Z,80.90
2019-03-30T01:13:49.566Z,81.47
2019-03-30T01:15:58.467Z,81.95
2019-03-30T01:18:06.211Z,75.28
2019-03-30T01:20:13.962Z,74.03
2019-03-30T01:22:21.679Z,75.85
2019-03-30T01:24:30.205Z,72.55
2019-03-30T01:26:37.888Z,74.75
2019-03-30T01:28:45.589Z,74.97
2019-03-30T01:30:54.452Z,68.80
2019-03-30T01:33:02.226Z,75.62
2019-03-30T01:35:09.918Z,94.72
2019-03-30T01:37:17.576Z,91.67
2019-03-30T01:39:25.263Z,87.15
2019-03-30T01:41:32.958Z,86.80
2019-03-30T01:43:40.602Z,76.72
2019-03-30T01:45:48.187Z,77.85
2019-03-30T01:47:55.979Z,75.57
2019-03-30T01:50:16.613Z,73.37
2019-03-30T01:52:14.769Z,71.92
2019-03-30T01:54:22.477Z,72.62
2019-03-30T01:56:30.163Z,77.30
2019-03-30T01:58:37.897Z,74.87
2019-03-30T02:00:45.962Z,73.72
2019-03-30T02:02:53.604Z,72.00
2019-03-30T02:05:01.279Z,75.42
2019-03-30T02:07:10.389Z,72.37
2019-03-30T02:09:18.138Z,68.92
2019-03-30T02:11:25.934Z,69.10
2019-03-30T02:13:33.634Z,63.95
2019-03-30T02:15:41.585Z,78.45
2019-03-30T02:17:49.289Z,84.90
2019-03-30T02:19:56.973Z,83.85
2019-03-30T02:22:04.666Z,75.08
2019-03-30T02:24:12.346Z,71.15
2019-03-30T02:26:20.530Z,75.22
2019-03-30T02:28:28.139Z,82.00
2019-03-30T02:30:36.054Z,78.55
2019-03-30T02:32:43.897Z,73.40
2019-03-30T02:34:51.601Z,67.58
2019-03-30T02:36:59.276Z,71.10
2019-03-30T02:39:07.511Z,69.32
2019-03-30T02:41:15.193Z,69.07
2019-03-30T02:43:22.871Z,61.55
2019-03-30T02:45:30.577Z,63.68
2019-03-30T02:47:38.258Z,62.08
2019-03-30T02:49:45.938Z,60.63
2019-03-30T02:51:53.658Z,69.12
2019-03-30T02:54:01.342Z,69.30
2019-03-30T02:56:09.293Z,70.45
2019-03-30T02:58:16.988Z,71.67
2019-03-30T03:00:24.660Z,66.02
2019-03-30T03:02:32.238Z,70.42
2019-03-30T03:04:40.211Z,62.95
2019-03-30T03:06:48.036Z,75.75
2019-03-30T03:08:55.722Z,70.32
2019-03-30T03:11:03.812Z,71.10
2019-03-30T03:13:11.581Z,70.32
2019-03-30T03:15:19.394Z,70.05
2019-03-30T03:17:27.234Z,72.67
2019-03-30T03:19:34.823Z,81.95
2019-03-30T03:21:42.495Z,92.20
2019-03-30T03:23:51.175Z,86.78
2019-03-30T03:25:58.852Z,88.62
2019-03-30T03:28:07.629Z,88.50
2019-03-30T03:30:15.579Z,92.12
2019-03-30T03:32:23.495Z,96.35
2019-03-30T03:34:31.181Z,87.08
2019-03-30T03:36:38.893Z,96.37
2019-03-30T03:38:46.641Z,93.20
2019-03-30T03:40:54.424Z,89.37
2019-03-30T03:43:02.295Z,91.55
2019-03-30T03:45:10.409Z,83.05
2019-03-30T03:47:18.291Z,82.88
2019-03-30T03:49:25.995Z,81.05
2019-03-30T03:51:34.610Z,77.17
2019-03-30T03:53:42.613Z,78.10
2019-03-30T03:55:51.565Z,84.20
2019-03-30T03:58:00.369Z,81.82
2019-03-30T04:00:09.556Z,79.35
2019-03-30T04:02:18.801Z,86.65
2019-03-30T04:04:28.086Z,86.00
2019-03-30T04:06:39.856Z,86.20
2019-03-30T04:08:48.755Z,84.75
2019-03-30T04:10:57.342Z,86.78
2019-03-30T04:13:09.713Z,90.10
2019-03-30T04:15:25.341Z,86.97
2019-03-30T04:17:33.259Z,85.55
2019-03-30T04:19:40.940Z,92.65
2019-03-30T04:21:48.653Z,101.20
2019-03-30T04:23:56.336Z,112.95
2019-03-30T04:26:04.118Z,95.20
2019-03-30T04:28:13.444Z,90.20
2019-03-30T04:30:21.142Z,89.95
2019-03-30T04:32:28.807Z,96.95
2019-03-30T04:34:36.517Z,92.67
2019-03-30T04:36:44.189Z,94.95
2019-03-30T04:38:52.842Z,96.10
2019-03-30T04:41:00.616Z,93.95
2019-03-30T04:43:09.559Z,93.65
2019-03-30T04:45:17.316Z,98.62
2019-03-30T04:47:25.031Z,100.15
2019-03-30T04:49:32.713Z,96.82
2019-03-30T04:51:40.488Z,97.08
2019-03-30T04:53:49.173Z,100.62
2019-03-30T04:55:56.932Z,97.15
2019-03-30T04:58:04.681Z,98.17
2019-03-30T05:00:12.676Z,95.85
2019-03-30T05:02:20.256Z,98.47
2019-03-30T05:04:30.623Z,90.90
2019-03-30T05:06:38.474Z,91.20
2019-03-30T05:08:46.148Z,91.15
2019-03-30T05:10:53.727Z,96.87
2019-03-30T05:13:01.456Z,98.45
2019-03-30T05:15:09.564Z,93.62
2019-03-30T05:17:17.226Z,96.53
2019-03-30T05:19:25.131Z,101.22
2019-03-30T05:21:32.814Z,104.17
2019-03-30T05:23:41.734Z,96.85
2019-03-30T05:25:49.559Z,102.53
2019-03-30T05:27:57.244Z,102.22
2019-03-30T05:30:07.532Z,96.72
2019-03-30T05:32:15.373Z,95.05
2019-03-30T05:34:23.149Z,87.35
2019-03-30T05:36:33.104Z,99.92
2019-03-30T05:38:40.798Z,107.60
2019-03-30T05:40:48.508Z,102.32
2019-03-30T05:42:57.284Z,105.63
2019-03-30T05:45:08.109Z,97.55
2019-03-30T05:47:15.808Z,97.08
2019-03-30T05:49:24.684Z,91.45
2019-03-30T05:51:32.465Z,87.27
2019-03-30T05:53:40.214Z,89.32
2019-03-30T05:55:47.935Z,86.53
2019-03-30T05:57:56.129Z,82.20
2019-03-30T06:00:05.686Z,78.60
2019-03-30T06:02:13.367Z,82.57
2019-03-30T06:04:21.074Z,78.85
2019-03-30T06:06:28.756Z,81.67
2019-03-30T06:08:36.434Z,79.30
2019-03-30T06:10:45.131Z,76.62
2019-03-30T06:12:52.803Z,77.00
2019-03-30T06:15:01.667Z,79.12
2019-03-30T06:17:09.495Z,75.30
2019-03-30T06:19:17.170Z,80.60
2019-03-30T06:21:24.888Z,80.25
2019-03-30T06:23:32.687Z,77.90
2019-03-30T06:25:41.445Z,76.92
2019-03-30T06:27:49.218Z,79.77
2019-03-30T06:30:21.184Z,80.38
2019-03-30T06:32:30.101Z,83.12
2019-03-30T06:34:38.014Z,83.72
2019-03-30T06:36:45.718Z,89.80
2019-03-30T06:38:54.658Z,89.62
2019-03-30T06:41:03.464Z,79.60
2019-03-30T06:43:11.234Z,78.75
2019-03-30T06:45:18.875Z,79.37
2019-03-30T06:47:26.559Z,77.08
2019-03-30T06:49:34.369Z,79.25
2019-03-30T06:51:42.049Z,82.30
2019-03-30T06:53:49.802Z,80.50
2019-03-30T06:55:57.501Z,79.07
2019-03-30T06:58:05.357Z,83.87
2019-03-30T07:00:13.559Z,81.28
2019-03-30T07:02:21.428Z,81.12
2019-03-30T07:04:29.178Z,80.57
2019-03-30T07:06:39.661Z,82.10
2019-03-30T07:08:48.673Z,82.30
2019-03-30T07:10:56.791Z,88.50
2019-03-30T07:13:04.742Z,93.12
2019-03-30T07:15:12.511Z,90.87
2019-03-30T07:17:20.372Z,89.40
2019-03-30T07:19:31.455Z,85.85
2019-03-30T07:21:40.362Z,86.82
2019-03-30T07:23:49.485Z,86.05
2019-03-30T07:25:57.162Z,75.30
2019-03-30T07:28:04.945Z,77.20
2019-03-30T07:30:12.865Z,77.55
2019-03-30T07:32:20.631Z,82.00
2019-03-30T07:34:28.354Z,83.52
2019-03-30T07:36:36.097Z,76.35
2019-03-30T07:38:43.776Z,70.08
2019-03-30T07:40:51.620Z,68.62
2019-03-30T07:42:59.373Z,69.27
2019-03-30T07:45:08.885Z,63.60
2019-03-30T07:47:16.587Z,42.10
2019-03-30T07:49:24.901Z,37.67
2019-03-30T07:51:33.673Z,38.50
2019-03-30T07:53:44.843Z,35.48
2019-03-30T07:55:51.962Z,40.92
2019-03-30T07:57:59.748Z,36.03
2019-03-30T08:00:09.758Z,38.50
2019-03-30T08:02:18.616Z,24.65
2019-03-30T08:04:28.656Z,29.32
2019-03-30T08:06:35.688Z,37.40
2019-03-30T08:08:43.363Z,38.28
2019-03-30T08:10:51.033Z,35.68
2019-03-30T08:12:58.802Z,28.40
2019-03-30T08:15:08.977Z,35.75
2019-03-30T08:17:16.646Z,35.95
2019-03-30T08:19:24.440Z,39.88
2019-03-30T08:21:33.304Z,38.65
2019-03-30T08:23:41.022Z,33.15
2019-03-30T08:25:49.906Z,30.88
2019-03-30T08:27:57.688Z,36.42
2019-03-30T08:30:08.430Z,37.15
2019-03-30T08:32:16.139Z,33.00
2019-03-30T08:34:24.661Z,26.27
2019-03-30T08:36:32.338Z,28.05
2019-03-30T08:38:40.043Z,20.80
2019-03-30T08:40:47.865Z,23.62
2019-03-30T08:42:55.534Z,31.12
2019-03-30T08:45:03.595Z,35.13
2019-03-30T08:47:11.266Z,29.80
2019-03-30T08:49:18.951Z,26.42
2019-03-30T08:51:26.658Z,15.43
2019-03-30T08:53:34.462Z,30.52
2019-03-30T08:55:42.202Z,30.30
2019-03-30T08:57:49.975Z,26.10
2019-03-30T08:59:57.813Z,29.23
2019-03-30T09:02:05.488Z,37.83
2019-03-30T09:04:13.207Z,27.62
2019-03-30T09:06:21.025Z,34.78
2019-03-30T09:08:28.701Z,35.00
2019-03-30T09:10:36.526Z,21.77
2019-03-30T09:12:44.190Z,19.90
2019-03-30T09:14:51.872Z,29.98
2019-03-30T09:16:59.672Z,29.70
2019-03-30T09:19:07.412Z,31.05
2019-03-30T09:21:15.228Z,31.27
2019-03-30T09:23:22.989Z,28.02
2019-03-30T09:25:30.567Z,30.80
2019-03-30T09:27:38.331Z,29.32
2019-03-30T09:29:46.129Z,30.77
2019-03-30T09:31:54.797Z,32.75
2019-03-30T09:34:02.472Z,24.65
2019-03-30T09:36:10.323Z,32.17
2019-03-30T09:38:17.988Z,38.33
2019-03-30T09:40:25.746Z,39.60
2019-03-30T09:42:33.568Z,30.32
2019-03-30T09:44:41.255Z,36.73
2019-03-30T09:46:48.998Z,36.98
2019-03-30T09:48:56.732Z,27.70
2019-03-30T09:51:04.472Z,26.82
2019-03-30T09:53:12.163Z,35.50
2019-03-30T09:55:19.830Z,32.75
2019-03-30T09:57:27.647Z,35.70
2019-03-30T09:59:35.400Z,39.25
2019-03-30T10:01:43.032Z,39.53
2019-03-30T10:03:50.722Z,33.88
2019-03-30T10:06:00.799Z,39.33
2019-03-30T10:08:08.615Z,37.42
2019-03-30T10:10:16.376Z,42.38
2019-03-30T10:12:24.162Z,37.58
2019-03-30T10:14:31.943Z,42.70
2019-03-30T10:16:39.632Z,40.83
2019-03-30T10:18:47.320Z,40.63
2019-03-30T10:20:55.089Z,42.78
2019-03-30T10:23:03.855Z,38.48
2019-03-30T10:25:11.875Z,41.02
2019-03-30T10:27:19.696Z,39.50
2019-03-30T10:29:27.516Z,41.08
2019-03-30T10:31:35.273Z,40.33
2019-03-30T10:33:43.005Z,42.70
2019-03-30T10:35:50.845Z,41.30
2019-03-30T10:37:59.292Z,41.60
2019-03-30T10:40:08.576Z,37.00
2019-03-30T10:42:16.414Z,31.95
2019-03-30T10:44:24.093Z,32.73
2019-03-30T10:46:31.807Z,42.17
2019-03-30T10:48:40.681Z,39.10
2019-03-30T10:50:48.377Z,41.13
2019-03-30T10:52:57.286Z,38.42
2019-03-30T10:55:06.490Z,26.40
2019-03-30T10:57:14.172Z,37.42
2019-03-30T10:59:21.961Z,38.02
2019-03-30T11:01:29.680Z,35.85
2019-03-30T11:03:37.571Z,39.00
2019-03-30T11:05:45.486Z,40.70
2019-03-30T11:07:53.176Z,40.63
2019-03-30T11:10:00.950Z,39.27
2019-03-30T11:12:08.718Z,40.73
2019-03-30T11:14:16.510Z,39.15
2019-03-30T11:16:24.372Z,41.18
2019-03-30T11:18:32.086Z,40.00
2019-03-30T11:20:39.941Z,40.35
2019-03-30T11:22:48.824Z,38.15
2019-03-30T11:25:07.241Z,38.15
2019-03-30T11:27:06.011Z,39.67
2019-03-30T11:29:13.692Z,38.92
2019-03-30T11:31:21.483Z,36.93
2019-03-30T11:33:29.291Z,41.28
2019-03-30T11:35:36.981Z,38.15
2019-03-30T11:37:44.706Z,39.05
2019-03-30T11:39:52.490Z,36.58
2019-03-30T11:42:00.382Z,37.95
2019-03-30T11:44:09.164Z,33.78
2019-03-30T11:46:16.850Z,37.13
2019-03-30T11:48:24.542Z,38.75
2019-03-30T11:50:32.413Z,32.73
2019-03-30T11:52:40.113Z,35.45
2019-03-30T11:54:47.806Z,34.67
2019-03-30T11:56:55.516Z,30.55
2019-03-30T11:59:03.273Z,25.50
2019-03-30T12:01:10.975Z,30.30
2019-03-30T12:03:18.859Z,31.73
2019-03-30T12:05:26.647Z,30.70
2019-03-30T12:07:34.332Z,34.25
2019-03-30T12:09:42.263Z,32.80
2019-03-30T12:11:50.057Z,33.63
2019-03-30T12:13:57.777Z,35.48
2019-03-30T12:16:05.665Z,37.42
2019-03-30T12:18:14.274Z,38.25
2019-03-30T12:20:21.871Z,31.25
2019-03-30T12:22:29.615Z,33.08
2019-03-30T12:24:37.302Z,35.38
2019-03-30T12:26:44.992Z,34.70
2019-03-30T12:28:52.712Z,36.23
2019-03-30T12:31:00.415Z,36.33
2019-03-30T12:33:08.101Z,35.05
2019-03-30T12:35:15.963Z,34.60
2019-03-30T12:37:23.785Z,35.48
2019-03-30T12:39:31.551Z,32.35
2019-03-30T12:41:40.185Z,32.53
2019-03-30T12:43:47.873Z,35.90
2019-03-30T12:45:55.565Z,37.23
2019-03-30T12:48:03.302Z,35.65
2019-03-30T12:50:11.403Z,31.25
2019-03-30T12:52:19.192Z,31.45
2019-03-30T12:54:27.020Z,31.82
2019-03-30T12:56:34.870Z,34.55
2019-03-30T12:58:42.562Z,34.45
2019-03-30T13:00:50.828Z,32.63
2019-03-30T13:02:58.520Z,29.85
2019-03-30T13:05:07.697Z,29.98
2019-03-30T13:07:15.347Z,28.23
2019-03-30T13:09:23.111Z,28.50
2019-03-30T13:11:30.803Z,30.35
2019-03-30T13:13:38.518Z,30.45
2019-03-30T13:15:46.375Z,30.45
2019-03-30T13:17:54.195Z,31.15
2019-03-30T13:20:01.836Z,29.80
2019-03-30T13:22:09.520Z,29.65
2019-03-30T13:24:17.382Z,30.32
2019-03-30T13:26:25.021Z,28.52
2019-03-30T13:28:32.612Z,26.15
2019-03-30T13:30:41.664Z,27.10
2019-03-30T13:32:49.491Z,26.23
2019-03-30T13:34:57.222Z,24.40
2019-03-30T13:37:18.831Z,25.60
2019-03-30T13:39:26.520Z,24.47
2019-03-30T13:41:34.351Z,24.12
2019-03-30T13:43:42.581Z,23.10
2019-03-30T13:45:51.571Z,24.72
2019-03-30T13:47:59.254Z,23.52
2019-03-30T13:50:08.027Z,23.30
2019-03-30T13:52:15.776Z,22.05
2019-03-30T13:54:23.473Z,21.07
2019-03-30T13:56:31.158Z,21.02
2019-03-30T13:58:38.941Z,20.32
2019-03-30T14:00:46.736Z,23.42
2019-03-30T14:02:57.228Z,19.73
2019-03-30T14:05:06.462Z,21.42
2019-03-30T14:07:15.121Z,21.57
2019-03-30T14:09:23.800Z,20.52
2019-03-30T14:11:31.606Z,20.70
2019-03-30T14:13:39.367Z,20.80
2019-03-30T14:15:46.959Z,18.87
2019-03-30T14:17:54.780Z,18.50
2019-03-30T14:20:03.023Z,19.25
2019-03-30T14:22:10.726Z,18.85
2019-03-30T14:24:18.448Z,17.85
2019-03-30T14:26:31.627Z,19.95
2019-03-30T14:28:35.427Z,18.82
2019-03-30T14:30:44.346Z,19.00
2019-03-30T14:32:52.105Z,19.25
2019-03-30T14:34:59.798Z,19.92
2019-03-30T14:37:07.413Z,19.87
2019-03-30T14:39:15.103Z,21.50
2019-03-30T14:41:23.988Z,20.10
2019-03-30T14:43:32.674Z,19.73
2019-03-30T14:45:40.495Z,19.65
2019-03-30T14:47:48.281Z,19.67
2019-03-30T14:49:55.995Z,19.23
2019-03-30T14:52:03.777Z,19.42
2019-03-30T14:54:14.220Z,18.42
2019-03-30T14:56:21.947Z,17.87
2019-03-30T14:58:29.744Z,18.70
2019-03-30T15:00:37.589Z,17.60
2019-03-30T15:02:45.523Z,16.55
2019-03-30T15:04:53.108Z,18.23
2019-03-30T15:07:00.801Z,18.25
2019-03-30T15:09:08.679Z,18.12
2019-03-30T15:11:17.651Z,17.60
2019-03-30T15:13:25.659Z,17.55
2019-03-30T15:15:33.314Z,16.77
2019-03-30T15:17:41.424Z,17.15
2019-03-30T15:19:49.211Z,17.65
2019-03-30T15:21:56.943Z,18.25
2019-03-30T15:24:04.801Z,18.12
2019-03-30T15:26:12.594Z,18.30
2019-03-30T15:28:20.308Z,18.52
2019-03-30T15:30:27.987Z,18.80
2019-03-30T15:32:35.676Z,18.12
2019-03-30T15:34:43.465Z,17.67
2019-03-30T15:36:51.234Z,18.30
2019-03-30T15:38:58.918Z,17.45
2019-03-30T15:41:06.701Z,18.80
2019-03-30T15:43:14.573Z,19.62
2019-03-30T15:45:22.333Z,18.67
2019-03-30T15:47:30.524Z,18.07
2019-03-30T15:49:38.212Z,14.25
2019-03-30T15:51:45.909Z,13.98
2019-03-30T15:53:53.793Z,13.50
2019-03-30T15:56:01.582Z,13.70
2019-03-30T15:58:09.438Z,12.50
2019-03-30T16:00:17.955Z,13.60
2019-03-30T16:02:25.717Z,16.37
2019-03-30T16:04:33.412Z,18.25
2019-03-30T16:06:41.199Z,35.08
2019-03-30T16:08:48.891Z,60.88
2019-03-30T16:10:56.823Z,26.68
2019-03-30T16:13:04.607Z,23.60
2019-03-30T16:15:12.476Z,29.92
2019-03-30T16:17:20.178Z,20.95
2019-03-30T16:19:27.893Z,25.50
2019-03-30T16:21:35.546Z,19.87
2019-03-30T16:23:43.406Z,18.10
2019-03-30T16:25:52.335Z,17.82
2019-03-30T16:28:00.026Z,18.67
2019-03-30T16:30:09.323Z,16.57
2019-03-30T16:32:17.078Z,14.80
2019-03-30T16:34:26.470Z,16.25
2019-03-30T16:36:34.162Z,17.05
2019-03-30T16:38:41.875Z,19.32
2019-03-30T16:40:49.673Z,19.25
2019-03-30T16:42:57.361Z,18.00
2019-03-30T16:45:07.990Z,17.60
2019-03-30T16:47:15.676Z,17.90
2019-03-30T16:49:23.450Z,18.00
2019-03-30T16:51:31.270Z,17.25
2019-03-30T16:53:38.860Z,42.70
2019-03-30T16:55:47.877Z,61.70
2019-03-30T16:57:56.707Z,74.00
2019-03-30T17:00:06.637Z,80.40
2019-03-30T17:02:14.403Z,88.30
2019-03-30T17:04:22.328Z,108.47
2019-03-30T17:06:30.071Z,245.97
2019-03-30T17:08:37.876Z,375.80
2019-03-30T17:10:45.602Z,346.82
2019-03-30T17:12:53.453Z,335.40
2019-03-30T17:15:01.231Z,449.00
2019-03-30T17:17:10.313Z,408.23
2019-03-30T17:19:18.071Z,380.65
2019-03-30T17:21:25.776Z,468.57
2019-03-30T17:23:33.504Z,431.07
2019-03-30T17:25:41.212Z,447.20
2019-03-30T17:27:58.223Z,445.02
2019-03-30T17:29:58.593Z,365.70
2019-03-30T17:32:07.555Z,326.27
2019-03-30T17:34:15.260Z,292.25
2019-03-30T17:36:23.122Z,218.45
2019-03-30T17:38:32.897Z,262.80
2019-03-30T17:40:40.500Z,244.43
2019-03-30T17:42:48.346Z,384.62
2019-03-30T17:44:56.081Z,222.17
2019-03-30T17:47:06.086Z,271.77
2019-03-30T17:49:13.813Z,195.30
2019-03-30T17:51:21.517Z,267.32
2019-03-30T17:53:29.228Z,230.00
2019-03-30T17:55:36.952Z,196.60
2019-03-30T17:57:44.725Z,149.82
2019-03-30T17:59:52.597Z,297.05
2019-03-30T18:02:00.521Z,95.95
2019-03-30T18:04:08.217Z,71.50
2019-03-30T18:06:15.916Z,99.47
2019-03-30T18:08:23.707Z,85.03
2019-03-30T18:10:31.513Z,105.07
2019-03-30T18:12:39.325Z,56.48
2019-03-30T18:14:47.271Z,164.57
2019-03-30T18:16:54.973Z,335.65
2019-03-30T18:19:02.795Z,234.70
2019-03-30T18:21:10.717Z,120.97
2019-03-30T18:23:18.415Z,55.80
2019-03-30T18:25:26.100Z,52.67
2019-03-30T18:27:33.807Z,59.60
2019-03-30T18:29:41.399Z,57.17
2019-03-30T18:31:49.172Z,72.65
2019-03-30T18:33:57.076Z,70.40
2019-03-30T18:36:05.282Z,87.00
2019-03-30T18:38:14.241Z,66.15
2019-03-30T18:40:31.694Z,87.08
2019-03-30T18:42:39.386Z,58.63
2019-03-30T18:44:47.618Z,60.50
2019-03-30T18:46:55.437Z,107.55
2019-03-30T18:49:03.137Z,94.37
2019-03-30T18:51:11.068Z,104.53
2019-03-30T18:53:19.483Z,96.95
2019-03-30T18:55:27.224Z,87.92
2019-03-30T18:57:35.085Z,80.90
2019-03-30T18:59:42.970Z,74.53
2019-03-30T19:01:50.759Z,65.65
2019-03-30T19:03:58.688Z,50.23
2019-03-30T19:06:06.504Z,51.28
2019-03-30T19:08:14.427Z,47.83
2019-03-30T19:10:22.080Z,63.30
2019-03-30T19:12:30.869Z,56.45
2019-03-30T19:14:39.819Z,69.30
2019-03-30T19:16:48.437Z,60.23
2019-03-30T19:18:56.327Z,66.37
2019-03-30T19:21:04.011Z,72.82
2019-03-30T19:23:11.763Z,71.77
2019-03-30T19:25:19.809Z,71.87
2019-03-30T19:27:27.573Z,79.25
2019-03-30T19:29:35.269Z,81.02
2019-03-30T19:31:42.908Z,90.12
2019-03-30T19:33:50.602Z,100.92
2019-03-30T19:35:58.407Z,91.08
2019-03-30T19:38:06.133Z,101.92
2019-03-30T19:40:14.000Z,103.45
2019-03-30T19:42:21.739Z,105.47
2019-03-30T19:44:29.503Z,92.50
2019-03-30T19:46:37.294Z,102.80
2019-03-30T19:48:45.097Z,118.33
2019-03-30T19:50:52.823Z,127.45
2019-03-30T19:53:00.486Z,98.52
2019-03-30T19:55:08.955Z,123.95
2019-03-30T19:57:16.684Z,121.25
2019-03-30T19:59:24.374Z,139.77
2019-03-30T20:01:32.108Z,124.67
2019-03-30T20:03:40.911Z,125.65
2019-03-30T20:05:48.712Z,134.00
2019-03-30T20:08:06.021Z,145.70
2019-03-30T20:10:07.448Z,166.60
2019-03-30T20:12:15.140Z,183.82
2019-03-30T20:14:22.938Z,146.95
2019-03-30T20:16:30.731Z,144.62
2019-03-30T20:18:38.529Z,134.85
2019-03-30T20:20:46.275Z,159.87
2019-03-30T20:22:54.020Z,154.30
2019-03-30T20:25:01.937Z,162.45
2019-03-30T20:27:09.633Z,158.87
2019-03-30T20:29:25.240Z,158.32
2019-03-30T20:31:26.747Z,157.75
2019-03-30T20:33:34.461Z,160.07
2019-03-30T20:35:42.293Z,156.93
2019-03-30T20:37:50.183Z,170.80
2019-03-30T20:39:57.884Z,182.00
2019-03-30T20:42:05.904Z,188.22
2019-03-30T20:44:13.672Z,186.40
2019-03-30T20:46:21.516Z,177.05
2019-03-30T20:48:29.245Z,180.22
2019-03-30T20:50:37.093Z,181.22
2019-03-30T20:52:44.782Z,181.22
2019-03-30T20:54:52.409Z,199.68
2019-03-30T20:57:00.957Z,209.12
2019-03-30T20:59:08.672Z,201.80
2019-03-30T21:01:16.461Z,211.15
2019-03-30T21:03:25.359Z,196.47
2019-03-30T21:05:33.051Z,213.75
2019-03-30T21:07:41.920Z,219.82
2019-03-30T21:09:49.838Z,222.50
2019-03-30T21:11:57.644Z,216.55
2019-03-30T21:14:05.485Z,217.25
2019-03-30T21:16:13.221Z,217.15
2019-03-30T21:18:20.984Z,211.40
2019-03-30T21:20:28.892Z,204.78
2019-03-30T21:22:37.013Z,208.57
2019-03-30T21:24:45.982Z,175.62
2019-03-30T21:26:53.794Z,199.70
2019-03-30T21:29:01.635Z,222.73
2019-03-30T21:31:09.415Z,208.05
2019-03-30T21:33:17.218Z,219.50
2019-03-30T21:35:24.942Z,220.20
2019-03-30T21:37:32.644Z,218.70
2019-03-30T21:39:40.377Z,252.25
2019-03-30T21:41:48.145Z,272.82
2019-03-30T21:43:56.096Z,269.95
2019-03-30T21:46:03.808Z,270.45
2019-03-30T21:48:11.518Z,268.85
2019-03-30T21:50:19.283Z,262.85
2019-03-30T21:52:28.213Z,265.12
2019-03-30T21:54:35.916Z,250.15
2019-03-30T21:56:43.623Z,244.20
2019-03-30T21:58:51.430Z,227.20
2019-03-30T22:01:00.110Z,208.38
2019-03-30T22:03:08.045Z,192.05
2019-03-30T22:05:15.965Z,171.90
2019-03-30T22:07:24.065Z,158.78
2019-03-30T22:09:32.172Z,155.93
2019-03-30T22:11:39.977Z,129.85
2019-03-30T22:13:47.811Z,154.10
2019-03-30T22:15:55.511Z,149.40
2019-03-30T22:18:03.256Z,153.10
2019-03-30T22:20:11.157Z,147.37
2019-03-30T22:22:18.846Z,122.78
2019-03-30T22:24:26.681Z,144.95
2019-03-30T22:26:34.372Z,149.40
2019-03-30T22:28:42.122Z,156.52
2019-03-30T22:30:49.928Z,148.50
2019-03-30T22:32:57.714Z,140.52
2019-03-30T22:35:06.194Z,135.68
2019-03-30T22:37:13.812Z,137.55
2019-03-30T22:39:21.505Z,142.10
2019-03-30T22:41:29.197Z,160.93
2019-03-30T22:43:37.022Z,168.05
2019-03-30T22:45:44.713Z,187.80
2019-03-30T22:47:52.445Z,189.18
2019-03-30T22:50:01.452Z,180.95
2019-03-30T22:52:09.319Z,178.95
2019-03-30T22:54:17.185Z,182.27
2019-03-30T22:56:26.064Z,186.18
2019-03-30T22:58:33.855Z,182.53
2019-03-30T23:00:41.665Z,180.82
2019-03-30T23:02:50.988Z,175.03
2019-03-30T23:04:59.868Z,177.15
2019-03-30T23:07:07.618Z,171.95
2019-03-30T23:09:15.547Z,183.07
2019-03-30T23:11:23.230Z,190.43
2019-03-30T23:13:30.938Z,203.18
2019-03-30T23:15:38.951Z,212.20
2019-03-30T23:17:46.682Z,213.35
2019-03-30T23:19:54.472Z,214.30
2019-03-30T23:22:02.190Z,208.63
2019-03-30T23:24:09.986Z,200.50
2019-03-30T23:26:17.745Z,152.27
2019-03-30T23:28:25.519Z,155.52
2019-03-30T23:30:33.280Z,149.57
2019-03-30T23:32:41.076Z,156.63
2019-03-30T23:34:49.024Z,164.35
2019-03-30T23:36:56.806Z,154.05
2019-03-30T23:39:06.827Z,152.07
2019-03-30T23:41:17.544Z,156.32
2019-03-30T23:43:25.299Z,150.50
2019-03-30T23:45:32.888Z,135.18
2019-03-30T23:47:42.233Z,148.53
2019-03-30T23:49:49.943Z,155.48
2019-03-30T23:51:57.626Z,150.32
2019-03-30T23:54:05.587Z,177.15
2019-03-30T23:56:24.815Z,157.07
2019-03-30T23:58:32.498Z,148.30
